sensor_id;sensor_type;location;lat;lon;timestamp;P1;durP1;ratioP1;P2;durP2;ratioP2
12970;SDS011;6550;48.650;8.774;2024-02-21T00:00:11;2.70;;;2.10;;
12970;SDS011;6550;48.650;8.774;2024-02-21T00:02:38;2.47;;;1.70;;
12970;SDS011;6550;48.650;8.774;2024-02-21T00:05:05;4.63;;;2.13;;
12970;SDS011;6550;48.650;8.774;2024-02-21T00:07:35;3.75;;;2.10;;
12970;SDS011;6550;48.650;8.774;2024-02-21T00:10:04;3.40;;;2.20;;
12970;SDS011;6550;48.650;8.774;2024-02-21T00:12:31;4.80;;;2.30;;
12970;SDS011;6550;48.650;8.774;2024-02-21T00:14:58;3.97;;;1.97;;
12970;SDS011;6550;48.650;8.774;2024-02-21T00:17:27;2.57;;;2.23;;
12970;SDS011;6550;48.650;8.774;2024-02-21T00:19:56;2.13;;;1.90;;
12970;SDS011;6550;48.650;8.774;2024-02-21T00:22:23;4.30;;;2.20;;
12970;SDS011;6550;48.650;8.774;2024-02-21T00:24:55;2.83;;;2.20;;
12970;SDS011;6550;48.650;8.774;2024-02-21T00:27:22;3.57;;;2.30;;
12970;SDS011;6550;48.650;8.774;2024-02-21T00:29:51;2.83;;;2.00;;
12970;SDS011;6550;48.650;8.774;2024-02-21T00:32:17;3.92;;;2.42;;
12970;SDS011;6550;48.650;8.774;2024-02-21T00:34:44;4.40;;;2.23;;
12970;SDS011;6550;48.650;8.774;2024-02-21T00:37:13;4.03;;;2.13;;
12970;SDS011;6550;48.650;8.774;2024-02-21T00:39:40;3.03;;;2.33;;
12970;SDS011;6550;48.650;8.774;2024-02-21T00:42:08;3.43;;;2.33;;
12970;SDS011;6550;48.650;8.774;2024-02-21T00:44:35;2.40;;;1.97;;
12970;SDS011;6550;48.650;8.774;2024-02-21T00:47:04;3.27;;;2.40;;
12970;SDS011;6550;48.650;8.774;2024-02-21T00:49:31;3.70;;;2.43;;
12970;SDS011;6550;48.650;8.774;2024-02-21T00:52:00;5.27;;;2.37;;
12970;SDS011;6550;48.650;8.774;2024-02-21T00:54:27;2.90;;;2.10;;
12970;SDS011;6550;48.650;8.774;2024-02-21T00:57:13;2.80;;;2.10;;
12970;SDS011;6550;48.650;8.774;2024-02-21T00:59:39;6.53;;;2.50;;
12970;SDS011;6550;48.650;8.774;2024-02-21T01:02:11;3.80;;;2.55;;
12970;SDS011;6550;48.650;8.774;2024-02-21T01:04:38;5.57;;;2.40;;
12970;SDS011;6550;48.650;8.774;2024-02-21T01:07:04;4.10;;;2.60;;
12970;SDS011;6550;48.650;8.774;2024-02-21T01:09:34;2.90;;;2.37;;
12970;SDS011;6550;48.650;8.774;2024-02-21T01:12:00;4.67;;;2.30;;
12970;SDS011;6550;48.650;8.774;2024-02-21T01:14:30;3.50;;;2.13;;
12970;SDS011;6550;48.650;8.774;2024-02-21T01:17:00;2.53;;;2.20;;
12970;SDS011;6550;48.650;8.774;2024-02-21T01:19:27;2.93;;;2.43;;
12970;SDS011;6550;48.650;8.774;2024-02-21T01:21:54;4.13;;;2.43;;
12970;SDS011;6550;48.650;8.774;2024-02-21T01:24:21;3.00;;;2.30;;
12970;SDS011;6550;48.650;8.774;2024-02-21T01:26:50;3.53;;;2.57;;
12970;SDS011;6550;48.650;8.774;2024-02-21T01:29:22;3.30;;;2.60;;
12970;SDS011;6550;48.650;8.774;2024-02-21T01:31:48;5.87;;;2.43;;
12970;SDS011;6550;48.650;8.774;2024-02-21T01:34:17;4.77;;;2.40;;
12970;SDS011;6550;48.650;8.774;2024-02-21T01:36:49;3.40;;;1.97;;
12970;SDS011;6550;48.650;8.774;2024-02-21T01:39:16;3.80;;;2.03;;
12970;SDS011;6550;48.650;8.774;2024-02-21T01:41:43;3.80;;;2.40;;
12970;SDS011;6550;48.650;8.774;2024-02-21T01:44:10;2.87;;;1.93;;
12970;SDS011;6550;48.650;8.774;2024-02-21T01:46:37;4.13;;;2.50;;
12970;SDS011;6550;48.650;8.774;2024-02-21T01:49:06;2.60;;;2.40;;
12970;SDS011;6550;48.650;8.774;2024-02-21T01:51:33;3.13;;;2.50;;
12970;SDS011;6550;48.650;8.774;2024-02-21T01:54:00;3.33;;;2.40;;
12970;SDS011;6550;48.650;8.774;2024-02-21T01:56:30;5.10;;;2.53;;
12970;SDS011;6550;48.650;8.774;2024-02-21T01:58:57;4.43;;;2.57;;
12970;SDS011;6550;48.650;8.774;2024-02-21T02:01:26;2.37;;;1.97;;
12970;SDS011;6550;48.650;8.774;2024-02-21T02:03:54;3.87;;;2.33;;
12970;SDS011;6550;48.650;8.774;2024-02-21T02:06:22;3.30;;;2.23;;
12970;SDS011;6550;48.650;8.774;2024-02-21T02:08:51;4.30;;;2.63;;
12970;SDS011;6550;48.650;8.774;2024-02-21T02:11:20;3.33;;;2.30;;
12970;SDS011;6550;48.650;8.774;2024-02-21T02:13:49;3.20;;;2.17;;
12970;SDS011;6550;48.650;8.774;2024-02-21T02:16:19;4.28;;;2.20;;
12970;SDS011;6550;48.650;8.774;2024-02-21T02:18:45;3.43;;;2.37;;
12970;SDS011;6550;48.650;8.774;2024-02-21T02:21:34;5.00;;;2.50;;
12970;SDS011;6550;48.650;8.774;2024-02-21T02:24:10;2.40;;;2.20;;
12970;SDS011;6550;48.650;8.774;2024-02-21T02:26:40;3.57;;;2.33;;
12970;SDS011;6550;48.650;8.774;2024-02-21T02:29:07;3.43;;;2.50;;
12970;SDS011;6550;48.650;8.774;2024-02-21T02:31:33;5.20;;;2.33;;
12970;SDS011;6550;48.650;8.774;2024-02-21T02:34:01;3.87;;;2.57;;
12970;SDS011;6550;48.650;8.774;2024-02-21T02:36:28;3.57;;;2.40;;
12970;SDS011;6550;48.650;8.774;2024-02-21T02:38:57;4.23;;;2.50;;
12970;SDS011;6550;48.650;8.774;2024-02-21T02:41:26;4.43;;;2.40;;
12970;SDS011;6550;48.650;8.774;2024-02-21T02:43:53;3.57;;;2.73;;
12970;SDS011;6550;48.650;8.774;2024-02-21T02:46:23;4.13;;;2.95;;
12970;SDS011;6550;48.650;8.774;2024-02-21T02:48:50;3.33;;;2.40;;
12970;SDS011;6550;48.650;8.774;2024-02-21T02:51:20;3.27;;;2.63;;
12970;SDS011;6550;48.650;8.774;2024-02-21T02:53:46;2.43;;;1.83;;
12970;SDS011;6550;48.650;8.774;2024-02-21T02:56:16;5.17;;;2.53;;
12970;SDS011;6550;48.650;8.774;2024-02-21T02:58:43;7.27;;;2.73;;
12970;SDS011;6550;48.650;8.774;2024-02-21T03:01:10;5.00;;;2.80;;
12970;SDS011;6550;48.650;8.774;2024-02-21T03:03:40;5.27;;;2.70;;
12970;SDS011;6550;48.650;8.774;2024-02-21T03:06:09;2.97;;;2.27;;
12970;SDS011;6550;48.650;8.774;2024-02-21T03:08:41;6.33;;;2.17;;
12970;SDS011;6550;48.650;8.774;2024-02-21T03:11:08;8.10;;;2.50;;
12970;SDS011;6550;48.650;8.774;2024-02-21T03:13:37;3.40;;;2.37;;
12970;SDS011;6550;48.650;8.774;2024-02-21T03:16:04;5.63;;;2.57;;
12970;SDS011;6550;48.650;8.774;2024-02-21T03:18:36;4.50;;;2.20;;
12970;SDS011;6550;48.650;8.774;2024-02-21T03:21:03;2.40;;;1.93;;
12970;SDS011;6550;48.650;8.774;2024-02-21T03:23:32;3.20;;;2.40;;
12970;SDS011;6550;48.650;8.774;2024-02-21T03:26:03;4.77;;;2.67;;
12970;SDS011;6550;48.650;8.774;2024-02-21T03:28:30;3.17;;;2.20;;
12970;SDS011;6550;48.650;8.774;2024-02-21T03:30:59;6.20;;;2.40;;
12970;SDS011;6550;48.650;8.774;2024-02-21T03:33:28;4.53;;;2.80;;
12970;SDS011;6550;48.650;8.774;2024-02-21T03:35:57;4.53;;;2.37;;
12970;SDS011;6550;48.650;8.774;2024-02-21T03:38:24;3.15;;;1.92;;
12970;SDS011;6550;48.650;8.774;2024-02-21T03:40:51;3.50;;;2.10;;
12970;SDS011;6550;48.650;8.774;2024-02-21T03:43:18;3.57;;;2.50;;
12970;SDS011;6550;48.650;8.774;2024-02-21T03:45:45;3.73;;;2.43;;
12970;SDS011;6550;48.650;8.774;2024-02-21T03:48:14;2.23;;;2.00;;
12970;SDS011;6550;48.650;8.774;2024-02-21T03:50:46;5.50;;;2.30;;
12970;SDS011;6550;48.650;8.774;2024-02-21T03:53:15;5.80;;;2.20;;
12970;SDS011;6550;48.650;8.774;2024-02-21T03:55:42;4.47;;;2.60;;
12970;SDS011;6550;48.650;8.774;2024-02-21T03:58:09;6.37;;;2.40;;
12970;SDS011;6550;48.650;8.774;2024-02-21T04:00:36;3.47;;;2.10;;
12970;SDS011;6550;48.650;8.774;2024-02-21T04:03:03;2.30;;;1.90;;
12970;SDS011;6550;48.650;8.774;2024-02-21T04:05:29;2.67;;;2.00;;
12970;SDS011;6550;48.650;8.774;2024-02-21T04:07:56;2.03;;;1.70;;
12970;SDS011;6550;48.650;8.774;2024-02-21T04:10:23;2.23;;;1.80;;
12970;SDS011;6550;48.650;8.774;2024-02-21T04:12:50;5.83;;;1.97;;
12970;SDS011;6550;48.650;8.774;2024-02-21T04:15:19;5.10;;;1.80;;
12970;SDS011;6550;48.650;8.774;2024-02-21T04:17:45;2.23;;;1.90;;
12970;SDS011;6550;48.650;8.774;2024-02-21T04:20:16;3.47;;;2.03;;
12970;SDS011;6550;48.650;8.774;2024-02-21T04:22:43;2.90;;;2.00;;
12970;SDS011;6550;48.650;8.774;2024-02-21T04:25:16;2.30;;;1.60;;
12970;SDS011;6550;48.650;8.774;2024-02-21T04:27:45;4.50;;;1.80;;
12970;SDS011;6550;48.650;8.774;2024-02-21T04:30:14;4.17;;;2.10;;
12970;SDS011;6550;48.650;8.774;2024-02-21T04:32:41;3.03;;;1.90;;
12970;SDS011;6550;48.650;8.774;2024-02-21T04:35:08;5.70;;;2.10;;
12970;SDS011;6550;48.650;8.774;2024-02-21T04:37:35;2.43;;;1.40;;
12970;SDS011;6550;48.650;8.774;2024-02-21T04:40:05;2.73;;;1.60;;
12970;SDS011;6550;48.650;8.774;2024-02-21T04:42:32;2.83;;;1.70;;
12970;SDS011;6550;48.650;8.774;2024-02-21T04:45:01;1.70;;;1.60;;
12970;SDS011;6550;48.650;8.774;2024-02-21T04:47:28;4.23;;;1.70;;
12970;SDS011;6550;48.650;8.774;2024-02-21T04:49:55;3.70;;;1.50;;
12970;SDS011;6550;48.650;8.774;2024-02-21T04:52:25;3.50;;;1.50;;
12970;SDS011;6550;48.650;8.774;2024-02-21T04:54:54;2.42;;;1.65;;
12970;SDS011;6550;48.650;8.774;2024-02-21T04:57:21;3.00;;;1.90;;
12970;SDS011;6550;48.650;8.774;2024-02-21T04:59:48;3.87;;;1.40;;
12970;SDS011;6550;48.650;8.774;2024-02-21T05:02:17;2.90;;;1.63;;
12970;SDS011;6550;48.650;8.774;2024-02-21T05:04:46;1.57;;;1.47;;
12970;SDS011;6550;48.650;8.774;2024-02-21T05:07:13;1.93;;;1.70;;
12970;SDS011;6550;48.650;8.774;2024-02-21T05:09:42;2.20;;;1.60;;
12970;SDS011;6550;48.650;8.774;2024-02-21T05:12:10;2.63;;;1.70;;
12970;SDS011;6550;48.650;8.774;2024-02-21T05:14:37;2.70;;;1.57;;
12970;SDS011;6550;48.650;8.774;2024-02-21T05:17:06;6.07;;;2.10;;
12970;SDS011;6550;48.650;8.774;2024-02-21T05:19:36;9.40;;;2.13;;
12970;SDS011;6550;48.650;8.774;2024-02-21T05:22:05;5.00;;;2.17;;
12970;SDS011;6550;48.650;8.774;2024-02-21T05:24:31;6.88;;;2.45;;
12970;SDS011;6550;48.650;8.774;2024-02-21T05:26:58;6.60;;;2.23;;
12970;SDS011;6550;48.650;8.774;2024-02-21T05:29:25;9.87;;;2.90;;
12970;SDS011;6550;48.650;8.774;2024-02-21T05:34:31;5.13;;;2.60;;
12970;SDS011;6550;48.650;8.774;2024-02-21T05:37:00;6.97;;;2.27;;
12970;SDS011;6550;48.650;8.774;2024-02-21T05:39:27;8.03;;;2.70;;
12970;SDS011;6550;48.650;8.774;2024-02-21T05:41:56;8.83;;;2.43;;
12970;SDS011;6550;48.650;8.774;2024-02-21T05:44:23;5.60;;;2.20;;
12970;SDS011;6550;48.650;8.774;2024-02-21T05:46:49;5.90;;;2.75;;
12970;SDS011;6550;48.650;8.774;2024-02-21T05:49:16;5.93;;;2.20;;
12970;SDS011;6550;48.650;8.774;2024-02-21T05:51:43;7.33;;;2.83;;
12970;SDS011;6550;48.650;8.774;2024-02-21T05:54:10;4.07;;;2.37;;
12970;SDS011;6550;48.650;8.774;2024-02-21T05:56:37;7.17;;;2.23;;
12970;SDS011;6550;48.650;8.774;2024-02-21T05:59:06;8.27;;;2.50;;
12970;SDS011;6550;48.650;8.774;2024-02-21T06:01:32;3.07;;;2.03;;
12970;SDS011;6550;48.650;8.774;2024-02-21T06:04:02;3.63;;;2.20;;
12970;SDS011;6550;48.650;8.774;2024-02-21T06:06:31;6.90;;;2.43;;
12970;SDS011;6550;48.650;8.774;2024-02-21T06:08:58;3.50;;;2.07;;
12970;SDS011;6550;48.650;8.774;2024-02-21T06:11:25;6.40;;;2.50;;
12970;SDS011;6550;48.650;8.774;2024-02-21T06:13:55;4.33;;;2.00;;
12970;SDS011;6550;48.650;8.774;2024-02-21T06:16:24;4.07;;;2.05;;
12970;SDS011;6550;48.650;8.774;2024-02-21T06:18:51;3.37;;;2.13;;
12970;SDS011;6550;48.650;8.774;2024-02-21T06:21:22;6.90;;;2.07;;
12970;SDS011;6550;48.650;8.774;2024-02-21T06:23:49;2.40;;;1.80;;
12970;SDS011;6550;48.650;8.774;2024-02-21T06:26:18;4.97;;;2.20;;
12970;SDS011;6550;48.650;8.774;2024-02-21T06:28:45;3.90;;;1.93;;
12970;SDS011;6550;48.650;8.774;2024-02-21T06:31:15;2.63;;;1.60;;
12970;SDS011;6550;48.650;8.774;2024-02-21T06:33:44;5.13;;;1.67;;
12970;SDS011;6550;48.650;8.774;2024-02-21T06:36:13;4.30;;;1.80;;
12970;SDS011;6550;48.650;8.774;2024-02-21T06:38:42;2.37;;;1.97;;
12970;SDS011;6550;48.650;8.774;2024-02-21T06:41:18;3.20;;;2.00;;
12970;SDS011;6550;48.650;8.774;2024-02-21T06:43:46;3.07;;;2.00;;
12970;SDS011;6550;48.650;8.774;2024-02-21T06:46:23;1.77;;;1.40;;
12970;SDS011;6550;48.650;8.774;2024-02-21T06:48:53;4.17;;;1.90;;
12970;SDS011;6550;48.650;8.774;2024-02-21T06:51:22;3.90;;;1.60;;
12970;SDS011;6550;48.650;8.774;2024-02-21T06:53:49;7.13;;;1.80;;
12970;SDS011;6550;48.650;8.774;2024-02-21T06:56:24;3.63;;;1.73;;
12970;SDS011;6550;48.650;8.774;2024-02-21T06:58:55;2.40;;;1.77;;
12970;SDS011;6550;48.650;8.774;2024-02-21T07:01:23;3.30;;;1.70;;
12970;SDS011;6550;48.650;8.774;2024-02-21T07:03:50;3.47;;;1.93;;
12970;SDS011;6550;48.650;8.774;2024-02-21T07:06:19;4.23;;;1.43;;
12970;SDS011;6550;48.650;8.774;2024-02-21T07:08:46;3.13;;;1.67;;
12970;SDS011;6550;48.650;8.774;2024-02-21T07:11:13;3.40;;;1.80;;
12970;SDS011;6550;48.650;8.774;2024-02-21T07:13:41;3.10;;;1.73;;
12970;SDS011;6550;48.650;8.774;2024-02-21T07:16:07;2.23;;;1.67;;
12970;SDS011;6550;48.650;8.774;2024-02-21T07:18:34;2.83;;;1.90;;
12970;SDS011;6550;48.650;8.774;2024-02-21T07:21:01;3.80;;;1.90;;
12970;SDS011;6550;48.650;8.774;2024-02-21T07:23:28;2.93;;;1.97;;
12970;SDS011;6550;48.650;8.774;2024-02-21T07:25:55;3.23;;;1.70;;
12970;SDS011;6550;48.650;8.774;2024-02-21T07:28:24;4.37;;;1.80;;
12970;SDS011;6550;48.650;8.774;2024-02-21T07:30:51;2.87;;;2.13;;
12970;SDS011;6550;48.650;8.774;2024-02-21T07:33:21;3.60;;;2.10;;
12970;SDS011;6550;48.650;8.774;2024-02-21T07:35:48;4.23;;;2.00;;
12970;SDS011;6550;48.650;8.774;2024-02-21T07:38:15;3.97;;;2.07;;
12970;SDS011;6550;48.650;8.774;2024-02-21T07:40:44;3.70;;;2.40;;
12970;SDS011;6550;48.650;8.774;2024-02-21T07:43:11;3.20;;;2.13;;
12970;SDS011;6550;48.650;8.774;2024-02-21T07:45:38;4.40;;;2.10;;
12970;SDS011;6550;48.650;8.774;2024-02-21T07:48:06;2.77;;;2.37;;
12970;SDS011;6550;48.650;8.774;2024-02-21T07:50:33;6.37;;;2.50;;
12970;SDS011;6550;48.650;8.774;2024-02-21T07:53:00;4.13;;;2.33;;
12970;SDS011;6550;48.650;8.774;2024-02-21T07:55:30;3.63;;;2.20;;
12970;SDS011;6550;48.650;8.774;2024-02-21T07:57:57;4.97;;;2.57;;
12970;SDS011;6550;48.650;8.774;2024-02-21T08:00:24;5.30;;;3.40;;
12970;SDS011;6550;48.650;8.774;2024-02-21T08:02:50;4.37;;;2.67;;
12970;SDS011;6550;48.650;8.774;2024-02-21T08:05:20;4.00;;;2.50;;
12970;SDS011;6550;48.650;8.774;2024-02-21T08:07:49;4.03;;;2.73;;
12970;SDS011;6550;48.650;8.774;2024-02-21T08:10:23;3.23;;;2.40;;
12970;SDS011;6550;48.650;8.774;2024-02-21T08:12:50;4.33;;;2.80;;
12970;SDS011;6550;48.650;8.774;2024-02-21T08:15:20;6.87;;;3.10;;
12970;SDS011;6550;48.650;8.774;2024-02-21T08:17:52;7.20;;;3.03;;
12970;SDS011;6550;48.650;8.774;2024-02-21T08:20:19;3.47;;;2.77;;
12970;SDS011;6550;48.650;8.774;2024-02-21T08:22:47;6.03;;;3.50;;
12970;SDS011;6550;48.650;8.774;2024-02-21T08:25:13;4.53;;;2.90;;
12970;SDS011;6550;48.650;8.774;2024-02-21T08:27:40;4.10;;;2.70;;
12970;SDS011;6550;48.650;8.774;2024-02-21T08:30:13;3.37;;;2.60;;
12970;SDS011;6550;48.650;8.774;2024-02-21T08:32:40;4.60;;;2.40;;
12970;SDS011;6550;48.650;8.774;2024-02-21T08:35:07;7.27;;;2.97;;
12970;SDS011;6550;48.650;8.774;2024-02-21T08:37:35;4.03;;;2.50;;
12970;SDS011;6550;48.650;8.774;2024-02-21T08:40:02;3.67;;;2.57;;
12970;SDS011;6550;48.650;8.774;2024-02-21T08:42:40;4.43;;;2.43;;
12970;SDS011;6550;48.650;8.774;2024-02-21T08:45:07;4.47;;;2.83;;
12970;SDS011;6550;48.650;8.774;2024-02-21T08:47:34;4.60;;;2.80;;
12970;SDS011;6550;48.650;8.774;2024-02-21T08:50:04;4.57;;;2.90;;
12970;SDS011;6550;48.650;8.774;2024-02-21T08:52:44;4.07;;;2.57;;
12970;SDS011;6550;48.650;8.774;2024-02-21T08:55:11;3.80;;;2.70;;
12970;SDS011;6550;48.650;8.774;2024-02-21T08:57:40;4.23;;;2.93;;
12970;SDS011;6550;48.650;8.774;2024-02-21T09:00:10;4.43;;;2.20;;
12970;SDS011;6550;48.650;8.774;2024-02-21T09:02:44;6.10;;;3.00;;
12970;SDS011;6550;48.650;8.774;2024-02-21T09:05:13;4.80;;;2.60;;
12970;SDS011;6550;48.650;8.774;2024-02-21T09:07:42;4.70;;;2.40;;
12970;SDS011;6550;48.650;8.774;2024-02-21T09:10:09;3.77;;;2.53;;
12970;SDS011;6550;48.650;8.774;2024-02-21T09:12:36;5.87;;;2.57;;
12970;SDS011;6550;48.650;8.774;2024-02-21T09:15:03;4.03;;;2.50;;
12970;SDS011;6550;48.650;8.774;2024-02-21T09:17:30;3.90;;;2.57;;
12970;SDS011;6550;48.650;8.774;2024-02-21T09:19:59;5.53;;;2.58;;
12970;SDS011;6550;48.650;8.774;2024-02-21T09:22:30;5.37;;;2.43;;
12970;SDS011;6550;48.650;8.774;2024-02-21T09:25:01;2.90;;;2.43;;
12970;SDS011;6550;48.650;8.774;2024-02-21T09:27:29;5.97;;;2.40;;
12970;SDS011;6550;48.650;8.774;2024-02-21T09:29:56;7.03;;;2.70;;
12970;SDS011;6550;48.650;8.774;2024-02-21T09:32:24;5.00;;;2.60;;
12970;SDS011;6550;48.650;8.774;2024-02-21T09:34:51;4.07;;;2.30;;
12970;SDS011;6550;48.650;8.774;2024-02-21T09:37:18;4.63;;;2.83;;
12970;SDS011;6550;48.650;8.774;2024-02-21T09:39:45;3.07;;;2.30;;
12970;SDS011;6550;48.650;8.774;2024-02-21T09:42:14;5.87;;;2.10;;
12970;SDS011;6550;48.650;8.774;2024-02-21T09:44:44;7.17;;;2.77;;
12970;SDS011;6550;48.650;8.774;2024-02-21T09:47:22;4.20;;;2.33;;
12970;SDS011;6550;48.650;8.774;2024-02-21T09:49:57;3.40;;;2.40;;
12970;SDS011;6550;48.650;8.774;2024-02-21T09:52:25;2.77;;;2.00;;
12970;SDS011;6550;48.650;8.774;2024-02-21T09:54:53;8.70;;;2.33;;
12970;SDS011;6550;48.650;8.774;2024-02-21T09:57:20;4.07;;;2.17;;
12970;SDS011;6550;48.650;8.774;2024-02-21T09:59:49;3.60;;;2.03;;
12970;SDS011;6550;48.650;8.774;2024-02-21T10:02:21;3.93;;;2.20;;
12970;SDS011;6550;48.650;8.774;2024-02-21T10:04:50;3.40;;;1.87;;
12970;SDS011;6550;48.650;8.774;2024-02-21T10:07:17;3.93;;;2.40;;
12970;SDS011;6550;48.650;8.774;2024-02-21T10:09:49;3.33;;;2.60;;
12970;SDS011;6550;48.650;8.774;2024-02-21T10:12:26;2.60;;;1.70;;
12970;SDS011;6550;48.650;8.774;2024-02-21T10:17:31;3.07;;;1.77;;
12970;SDS011;6550;48.650;8.774;2024-02-21T10:20:09;5.13;;;2.63;;
12970;SDS011;6550;48.650;8.774;2024-02-21T10:22:37;4.77;;;2.20;;
12970;SDS011;6550;48.650;8.774;2024-02-21T10:25:07;2.70;;;1.67;;
12970;SDS011;6550;48.650;8.774;2024-02-21T10:27:38;2.47;;;1.80;;
12970;SDS011;6550;48.650;8.774;2024-02-21T10:30:12;4.70;;;2.00;;
12970;SDS011;6550;48.650;8.774;2024-02-21T10:32:52;4.65;;;1.75;;
12970;SDS011;6550;48.650;8.774;2024-02-21T10:35:29;2.67;;;1.70;;
12970;SDS011;6550;48.650;8.774;2024-02-21T10:37:58;3.97;;;1.60;;
12970;SDS011;6550;48.650;8.774;2024-02-21T10:40:29;2.90;;;1.67;;
12970;SDS011;6550;48.650;8.774;2024-02-21T10:43:00;3.63;;;1.70;;
12970;SDS011;6550;48.650;8.774;2024-02-21T10:45:31;4.17;;;1.67;;
12970;SDS011;6550;48.650;8.774;2024-02-21T10:48:08;3.43;;;1.83;;
12970;SDS011;6550;48.650;8.774;2024-02-21T10:50:45;3.93;;;1.60;;
12970;SDS011;6550;48.650;8.774;2024-02-21T10:53:24;1.73;;;1.60;;
12970;SDS011;6550;48.650;8.774;2024-02-21T10:56:46;4.35;;;2.00;;
12970;SDS011;6550;48.650;8.774;2024-02-21T10:59:08;3.37;;;1.63;;
12970;SDS011;6550;48.650;8.774;2024-02-21T11:01:39;2.17;;;1.60;;
12970;SDS011;6550;48.650;8.774;2024-02-21T11:04:06;1.83;;;1.60;;
12970;SDS011;6550;48.650;8.774;2024-02-21T11:06:35;2.93;;;1.57;;
12970;SDS011;6550;48.650;8.774;2024-02-21T11:09:05;16.53;;;2.40;;
12970;SDS011;6550;48.650;8.774;2024-02-21T11:11:35;8.50;;;2.00;;
12970;SDS011;6550;48.650;8.774;2024-02-21T11:14:07;11.20;;;1.27;;
12970;SDS011;6550;48.650;8.774;2024-02-21T11:16:36;10.03;;;1.83;;
12970;SDS011;6550;48.650;8.774;2024-02-21T11:19:08;11.27;;;1.47;;
12970;SDS011;6550;48.650;8.774;2024-02-21T11:21:45;9.50;;;1.67;;
12970;SDS011;6550;48.650;8.774;2024-02-21T11:24:25;5.63;;;1.73;;
12970;SDS011;6550;48.650;8.774;2024-02-21T11:26:54;3.47;;;1.57;;
12970;SDS011;6550;48.650;8.774;2024-02-21T11:29:24;1.63;;;1.20;;
12970;SDS011;6550;48.650;8.774;2024-02-21T11:31:52;3.37;;;1.23;;
12970;SDS011;6550;48.650;8.774;2024-02-21T11:34:19;3.27;;;1.60;;
12970;SDS011;6550;48.650;8.774;2024-02-21T11:36:49;9.20;;;1.40;;
12970;SDS011;6550;48.650;8.774;2024-02-21T11:39:21;3.72;;;1.63;;
12970;SDS011;6550;48.650;8.774;2024-02-21T11:42:04;2.00;;;1.33;;
12970;SDS011;6550;48.650;8.774;2024-02-21T11:44:34;1.40;;;1.00;;
12970;SDS011;6550;48.650;8.774;2024-02-21T11:47:04;4.53;;;1.10;;
12970;SDS011;6550;48.650;8.774;2024-02-21T11:49:36;7.57;;;1.07;;
12970;SDS011;6550;48.650;8.774;2024-02-21T11:52:14;2.37;;;1.00;;
12970;SDS011;6550;48.650;8.774;2024-02-21T11:54:48;2.90;;;1.30;;
12970;SDS011;6550;48.650;8.774;2024-02-21T11:57:15;2.30;;;1.40;;
12970;SDS011;6550;48.650;8.774;2024-02-21T11:59:46;2.30;;;1.30;;
12970;SDS011;6550;48.650;8.774;2024-02-21T12:02:20;2.80;;;1.23;;
12970;SDS011;6550;48.650;8.774;2024-02-21T12:04:47;4.40;;;1.40;;
12970;SDS011;6550;48.650;8.774;2024-02-21T12:07:15;2.93;;;1.30;;
12970;SDS011;6550;48.650;8.774;2024-02-21T12:09:45;1.70;;;1.00;;
12970;SDS011;6550;48.650;8.774;2024-02-21T12:12:12;3.23;;;1.10;;
12970;SDS011;6550;48.650;8.774;2024-02-21T12:14:39;0.97;;;0.90;;
12970;SDS011;6550;48.650;8.774;2024-02-21T12:17:06;2.73;;;1.20;;
12970;SDS011;6550;48.650;8.774;2024-02-21T12:19:35;2.13;;;1.07;;
12970;SDS011;6550;48.650;8.774;2024-02-21T12:22:07;4.10;;;1.07;;
12970;SDS011;6550;48.650;8.774;2024-02-21T12:24:44;1.93;;;1.00;;
12970;SDS011;6550;48.650;8.774;2024-02-21T12:27:14;1.47;;;1.00;;
12970;SDS011;6550;48.650;8.774;2024-02-21T12:29:43;2.73;;;1.27;;
12970;SDS011;6550;48.650;8.774;2024-02-21T12:32:10;3.27;;;1.40;;
12970;SDS011;6550;48.650;8.774;2024-02-21T12:34:39;1.27;;;0.87;;
12970;SDS011;6550;48.650;8.774;2024-02-21T12:37:19;1.33;;;0.83;;
12970;SDS011;6550;48.650;8.774;2024-02-21T12:39:48;3.30;;;1.20;;
12970;SDS011;6550;48.650;8.774;2024-02-21T12:42:14;3.53;;;1.10;;
12970;SDS011;6550;48.650;8.774;2024-02-21T12:44:41;1.27;;;1.07;;
12970;SDS011;6550;48.650;8.774;2024-02-21T12:47:12;2.27;;;1.13;;
12970;SDS011;6550;48.650;8.774;2024-02-21T12:49:41;2.10;;;0.93;;
12970;SDS011;6550;48.650;8.774;2024-02-21T12:52:11;1.97;;;1.20;;
12970;SDS011;6550;48.650;8.774;2024-02-21T12:54:41;1.37;;;1.20;;
12970;SDS011;6550;48.650;8.774;2024-02-21T12:57:08;1.67;;;1.03;;
12970;SDS011;6550;48.650;8.774;2024-02-21T12:59:37;1.27;;;0.87;;
12970;SDS011;6550;48.650;8.774;2024-02-21T13:02:05;1.98;;;0.90;;
12970;SDS011;6550;48.650;8.774;2024-02-21T13:04:32;2.57;;;1.00;;
12970;SDS011;6550;48.650;8.774;2024-02-21T13:07:00;2.07;;;0.90;;
12970;SDS011;6550;48.650;8.774;2024-02-21T13:09:29;1.83;;;1.03;;
12970;SDS011;6550;48.650;8.774;2024-02-21T13:11:56;0.80;;;0.80;;
12970;SDS011;6550;48.650;8.774;2024-02-21T13:14:25;1.20;;;1.00;;
12970;SDS011;6550;48.650;8.774;2024-02-21T13:16:52;1.23;;;0.80;;
12970;SDS011;6550;48.650;8.774;2024-02-21T13:19:21;2.25;;;0.82;;
12970;SDS011;6550;48.650;8.774;2024-02-21T13:21:48;2.17;;;0.70;;
12970;SDS011;6550;48.650;8.774;2024-02-21T13:24:18;3.17;;;0.80;;
12970;SDS011;6550;48.650;8.774;2024-02-21T13:26:45;1.07;;;0.80;;
12970;SDS011;6550;48.650;8.774;2024-02-21T13:29:16;1.50;;;0.93;;
12970;SDS011;6550;48.650;8.774;2024-02-21T13:31:48;1.03;;;0.87;;
12970;SDS011;6550;48.650;8.774;2024-02-21T13:34:16;1.80;;;0.90;;
12970;SDS011;6550;48.650;8.774;2024-02-21T13:36:45;0.60;;;0.60;;
12970;SDS011;6550;48.650;8.774;2024-02-21T13:39:15;1.03;;;0.73;;
12970;SDS011;6550;48.650;8.774;2024-02-21T13:41:42;1.13;;;0.90;;
12970;SDS011;6550;48.650;8.774;2024-02-21T13:44:12;1.03;;;0.93;;
12970;SDS011;6550;48.650;8.774;2024-02-21T13:46:43;1.30;;;1.00;;
12970;SDS011;6550;48.650;8.774;2024-02-21T13:49:10;1.60;;;1.07;;
12970;SDS011;6550;48.650;8.774;2024-02-21T13:51:37;1.83;;;0.80;;
12970;SDS011;6550;48.650;8.774;2024-02-21T13:54:07;1.07;;;0.70;;
12970;SDS011;6550;48.650;8.774;2024-02-21T13:56:37;1.40;;;0.73;;
12970;SDS011;6550;48.650;8.774;2024-02-21T13:59:06;1.33;;;0.90;;
12970;SDS011;6550;48.650;8.774;2024-02-21T14:01:34;2.80;;;0.80;;
12970;SDS011;6550;48.650;8.774;2024-02-21T14:04:02;3.43;;;0.53;;
12970;SDS011;6550;48.650;8.774;2024-02-21T14:06:31;3.00;;;0.70;;
12970;SDS011;6550;48.650;8.774;2024-02-21T14:08:58;2.30;;;1.10;;
12970;SDS011;6550;48.650;8.774;2024-02-21T14:11:29;1.23;;;0.90;;
12970;SDS011;6550;48.650;8.774;2024-02-21T14:13:57;1.90;;;1.00;;
12970;SDS011;6550;48.650;8.774;2024-02-21T14:16:24;2.17;;;0.83;;
12970;SDS011;6550;48.650;8.774;2024-02-21T14:18:55;2.97;;;1.07;;
12970;SDS011;6550;48.650;8.774;2024-02-21T14:21:24;1.23;;;1.10;;
12970;SDS011;6550;48.650;8.774;2024-02-21T14:23:54;1.90;;;1.00;;
12970;SDS011;6550;48.650;8.774;2024-02-21T14:26:23;1.33;;;1.07;;
12970;SDS011;6550;48.650;8.774;2024-02-21T14:28:50;2.83;;;0.80;;
12970;SDS011;6550;48.650;8.774;2024-02-21T14:31:19;2.60;;;1.10;;
12970;SDS011;6550;48.650;8.774;2024-02-21T14:33:46;3.37;;;1.20;;
12970;SDS011;6550;48.650;8.774;2024-02-21T14:36:16;0.90;;;0.80;;
12970;SDS011;6550;48.650;8.774;2024-02-21T14:38:50;1.33;;;0.80;;
12970;SDS011;6550;48.650;8.774;2024-02-21T14:41:19;0.93;;;0.90;;
12970;SDS011;6550;48.650;8.774;2024-02-21T14:43:46;1.97;;;0.90;;
12970;SDS011;6550;48.650;8.774;2024-02-21T14:46:13;1.20;;;0.93;;
12970;SDS011;6550;48.650;8.774;2024-02-21T14:48:40;1.00;;;0.90;;
12970;SDS011;6550;48.650;8.774;2024-02-21T14:51:07;0.87;;;0.70;;
12970;SDS011;6550;48.650;8.774;2024-02-21T14:53:36;0.63;;;0.63;;
12970;SDS011;6550;48.650;8.774;2024-02-21T14:56:05;1.23;;;0.80;;
12970;SDS011;6550;48.650;8.774;2024-02-21T14:58:39;1.63;;;1.10;;
12970;SDS011;6550;48.650;8.774;2024-02-21T15:01:09;1.07;;;0.97;;
12970;SDS011;6550;48.650;8.774;2024-02-21T15:03:39;0.80;;;0.80;;
12970;SDS011;6550;48.650;8.774;2024-02-21T15:06:06;1.50;;;0.80;;
12970;SDS011;6550;48.650;8.774;2024-02-21T15:08:33;1.27;;;1.00;;
12970;SDS011;6550;48.650;8.774;2024-02-21T15:11:00;2.40;;;0.90;;
12970;SDS011;6550;48.650;8.774;2024-02-21T15:13:27;2.63;;;0.90;;
12970;SDS011;6550;48.650;8.774;2024-02-21T15:15:56;2.77;;;0.90;;